sensor_id;sensor_type;location;lat;lon;timestamp;P1;durP1;ratioP1;P2;durP2;ratioP2
7875;SDS011;69649;53.712;9.680;2023-07-31T00:01:19;4.03;;;2.40;;
7875;SDS011;69649;53.712;9.680;2023-07-31T00:03:45;6.03;;;2.30;;
7875;SDS011;69649;53.712;9.680;2023-07-31T00:06:11;4.07;;;2.10;;
7875;SDS011;69649;53.712;9.680;2023-07-31T00:08:37;6.33;;;2.13;;
7875;SDS011;69649;53.712;9.680;2023-07-31T00:11:03;6.60;;;2.30;;
7875;SDS011;69649;53.712;9.680;2023-07-31T00:13:29;7.70;;;2.90;;
7875;SDS011;69649;53.712;9.680;2023-07-31T00:15:54;8.83;;;2.37;;
7875;SDS011;69649;53.712;9.680;2023-07-31T00:18:20;4.27;;;2.47;;
7875;SDS011;69649;53.712;9.680;2023-07-31T00:20:46;4.67;;;2.30;;
7875;SDS011;69649;53.712;9.680;2023-07-31T00:23:12;7.43;;;2.50;;
7875;SDS011;69649;53.712;9.680;2023-07-31T00:25:38;4.53;;;2.60;;
7875;SDS011;69649;53.712;9.680;2023-07-31T00:28:03;5.30;;;2.87;;
7875;SDS011;69649;53.712;9.680;2023-07-31T00:30:29;7.03;;;2.63;;
7875;SDS011;69649;53.712;9.680;2023-07-31T00:32:55;4.90;;;2.30;;
7875;SDS011;69649;53.712;9.680;2023-07-31T00:35:21;4.67;;;2.70;;
7875;SDS011;69649;53.712;9.680;2023-07-31T00:37:47;7.03;;;2.47;;
7875;SDS011;69649;53.712;9.680;2023-07-31T00:40:13;6.03;;;2.50;;
7875;SDS011;69649;53.712;9.680;2023-07-31T00:42:39;8.57;;;2.70;;
7875;SDS011;69649;53.712;9.680;2023-07-31T00:45:05;11.30;;;2.67;;
7875;SDS011;69649;53.712;9.680;2023-07-31T00:47:31;11.27;;;2.87;;
7875;SDS011;69649;53.712;9.680;2023-07-31T00:49:57;5.97;;;2.80;;
7875;SDS011;69649;53.712;9.680;2023-07-31T00:52:23;7.43;;;3.07;;
7875;SDS011;69649;53.712;9.680;2023-07-31T00:54:49;12.13;;;3.57;;
7875;SDS011;69649;53.712;9.680;2023-07-31T00:57:15;8.33;;;3.47;;
7875;SDS011;69649;53.712;9.680;2023-07-31T00:59:41;13.00;;;4.17;;
7875;SDS011;69649;53.712;9.680;2023-07-31T01:02:07;5.27;;;2.50;;
7875;SDS011;69649;53.712;9.680;2023-07-31T01:04:33;10.63;;;3.83;;
7875;SDS011;69649;53.712;9.680;2023-07-31T01:07:14;5.43;;;2.57;;
7875;SDS011;69649;53.712;9.680;2023-07-31T01:09:46;10.63;;;3.27;;
7875;SDS011;69649;53.712;9.680;2023-07-31T01:12:20;7.13;;;3.27;;
7875;SDS011;69649;53.712;9.680;2023-07-31T01:15:01;4.50;;;3.57;;
7875;SDS011;69649;53.712;9.680;2023-07-31T01:17:34;4.63;;;3.37;;
7875;SDS011;69649;53.712;9.680;2023-07-31T01:20:01;6.00;;;4.37;;
7875;SDS011;69649;53.712;9.680;2023-07-31T01:28:07;4.47;;;2.60;;
7875;SDS011;69649;53.712;9.680;2023-07-31T01:30:34;8.47;;;2.57;;
7875;SDS011;69649;53.712;9.680;2023-07-31T01:33:02;6.73;;;2.27;;
7875;SDS011;69649;53.712;9.680;2023-07-31T01:35:35;7.37;;;2.70;;
7875;SDS011;69649;53.712;9.680;2023-07-31T01:38:02;6.27;;;2.67;;
7875;SDS011;69649;53.712;9.680;2023-07-31T01:40:28;8.57;;;2.57;;
7875;SDS011;69649;53.712;9.680;2023-07-31T01:42:54;5.43;;;2.50;;
7875;SDS011;69649;53.712;9.680;2023-07-31T01:45:19;5.73;;;2.43;;
7875;SDS011;69649;53.712;9.680;2023-07-31T01:47:45;5.10;;;2.53;;
7875;SDS011;69649;53.712;9.680;2023-07-31T01:50:11;10.80;;;2.97;;
7875;SDS011;69649;53.712;9.680;2023-07-31T01:52:37;8.00;;;2.70;;
7875;SDS011;69649;53.712;9.680;2023-07-31T01:55:03;7.30;;;2.90;;
7875;SDS011;69649;53.712;9.680;2023-07-31T01:57:29;7.17;;;2.90;;
7875;SDS011;69649;53.712;9.680;2023-07-31T01:59:55;8.77;;;3.13;;
7875;SDS011;69649;53.712;9.680;2023-07-31T02:02:21;9.03;;;3.30;;
7875;SDS011;69649;53.712;9.680;2023-07-31T02:04:48;7.53;;;3.03;;
7875;SDS011;69649;53.712;9.680;2023-07-31T02:07:14;9.33;;;3.73;;
7875;SDS011;69649;53.712;9.680;2023-07-31T02:09:40;8.07;;;2.47;;
7875;SDS011;69649;53.712;9.680;2023-07-31T02:12:06;7.57;;;2.60;;
7875;SDS011;69649;53.712;9.680;2023-07-31T02:14:34;6.57;;;3.17;;
7875;SDS011;69649;53.712;9.680;2023-07-31T02:17:00;9.57;;;3.07;;
7875;SDS011;69649;53.712;9.680;2023-07-31T02:19:26;5.63;;;2.63;;
7875;SDS011;69649;53.712;9.680;2023-07-31T02:21:52;6.90;;;2.87;;
7875;SDS011;69649;53.712;9.680;2023-07-31T02:24:17;9.57;;;3.47;;
7875;SDS011;69649;53.712;9.680;2023-07-31T02:26:43;6.90;;;2.90;;
7875;SDS011;69649;53.712;9.680;2023-07-31T02:29:09;12.70;;;3.20;;
7875;SDS011;69649;53.712;9.680;2023-07-31T02:31:34;7.67;;;3.07;;
7875;SDS011;69649;53.712;9.680;2023-07-31T02:34:00;6.07;;;3.40;;
7875;SDS011;69649;53.712;9.680;2023-07-31T02:36:26;7.30;;;3.10;;
7875;SDS011;69649;53.712;9.680;2023-07-31T02:38:52;5.37;;;3.43;;
7875;SDS011;69649;53.712;9.680;2023-07-31T02:41:17;5.70;;;3.30;;
7875;SDS011;69649;53.712;9.680;2023-07-31T02:43:43;6.50;;;3.10;;
7875;SDS011;69649;53.712;9.680;2023-07-31T02:46:09;8.90;;;2.87;;
7875;SDS011;69649;53.712;9.680;2023-07-31T02:48:35;7.63;;;3.37;;
7875;SDS011;69649;53.712;9.680;2023-07-31T02:51:00;10.80;;;3.10;;
7875;SDS011;69649;53.712;9.680;2023-07-31T02:53:26;3.63;;;2.80;;
7875;SDS011;69649;53.712;9.680;2023-07-31T02:55:52;7.23;;;2.93;;
7875;SDS011;69649;53.712;9.680;2023-07-31T02:58:17;9.40;;;2.80;;
7875;SDS011;69649;53.712;9.680;2023-07-31T03:00:44;6.00;;;3.43;;
7875;SDS011;69649;53.712;9.680;2023-07-31T03:03:10;4.60;;;2.90;;
7875;SDS011;69649;53.712;9.680;2023-07-31T03:05:36;6.37;;;3.33;;
7875;SDS011;69649;53.712;9.680;2023-07-31T03:08:02;6.17;;;2.60;;
7875;SDS011;69649;53.712;9.680;2023-07-31T03:10:29;6.07;;;2.93;;
7875;SDS011;69649;53.712;9.680;2023-07-31T03:12:55;6.60;;;3.07;;
7875;SDS011;69649;53.712;9.680;2023-07-31T03:15:21;3.97;;;2.70;;
7875;SDS011;69649;53.712;9.680;2023-07-31T03:17:47;3.63;;;2.90;;
7875;SDS011;69649;53.712;9.680;2023-07-31T03:20:12;7.67;;;3.37;;
7875;SDS011;69649;53.712;9.680;2023-07-31T03:22:38;5.83;;;3.27;;
7875;SDS011;69649;53.712;9.680;2023-07-31T03:25:04;8.47;;;3.07;;
7875;SDS011;69649;53.712;9.680;2023-07-31T03:27:30;6.30;;;2.90;;
7875;SDS011;69649;53.712;9.680;2023-07-31T03:29:56;5.60;;;3.30;;
7875;SDS011;69649;53.712;9.680;2023-07-31T03:32:22;5.63;;;3.83;;
7875;SDS011;69649;53.712;9.680;2023-07-31T03:34:49;4.73;;;2.83;;
7875;SDS011;69649;53.712;9.680;2023-07-31T03:37:15;7.37;;;3.20;;
7875;SDS011;69649;53.712;9.680;2023-07-31T03:39:40;8.03;;;3.03;;
7875;SDS011;69649;53.712;9.680;2023-07-31T03:42:06;6.87;;;2.70;;
7875;SDS011;69649;53.712;9.680;2023-07-31T03:44:32;4.73;;;3.87;;
7875;SDS011;69649;53.712;9.680;2023-07-31T03:46:58;4.43;;;2.73;;
7875;SDS011;69649;53.712;9.680;2023-07-31T03:49:23;4.07;;;2.40;;
7875;SDS011;69649;53.712;9.680;2023-07-31T03:51:49;4.97;;;3.00;;
7875;SDS011;69649;53.712;9.680;2023-07-31T03:54:15;9.30;;;3.10;;
7875;SDS011;69649;53.712;9.680;2023-07-31T03:56:41;4.47;;;2.90;;
7875;SDS011;69649;53.712;9.680;2023-07-31T03:59:07;4.23;;;2.97;;
7875;SDS011;69649;53.712;9.680;2023-07-31T04:01:33;7.23;;;2.70;;
7875;SDS011;69649;53.712;9.680;2023-07-31T04:03:58;8.53;;;3.30;;
7875;SDS011;69649;53.712;9.680;2023-07-31T04:06:24;8.63;;;5.17;;
7875;SDS011;69649;53.712;9.680;2023-07-31T04:08:50;5.63;;;3.33;;
7875;SDS011;69649;53.712;9.680;2023-07-31T04:11:16;5.50;;;3.20;;
7875;SDS011;69649;53.712;9.680;2023-07-31T04:13:42;5.87;;;3.40;;
7875;SDS011;69649;53.712;9.680;2023-07-31T04:16:08;8.17;;;3.57;;
7875;SDS011;69649;53.712;9.680;2023-07-31T04:18:33;4.20;;;3.27;;
7875;SDS011;69649;53.712;9.680;2023-07-31T04:20:59;4.23;;;3.23;;
7875;SDS011;69649;53.712;9.680;2023-07-31T04:23:26;5.83;;;3.73;;
7875;SDS011;69649;53.712;9.680;2023-07-31T04:25:52;5.17;;;4.20;;
7875;SDS011;69649;53.712;9.680;2023-07-31T04:28:18;6.67;;;4.20;;
7875;SDS011;69649;53.712;9.680;2023-07-31T04:30:44;5.30;;;3.83;;
7875;SDS011;69649;53.712;9.680;2023-07-31T04:33:09;4.53;;;3.97;;
7875;SDS011;69649;53.712;9.680;2023-07-31T04:35:35;5.23;;;4.23;;
7875;SDS011;69649;53.712;9.680;2023-07-31T04:38:01;5.17;;;4.10;;
7875;SDS011;69649;53.712;9.680;2023-07-31T04:40:27;5.50;;;3.63;;
7875;SDS011;69649;53.712;9.680;2023-07-31T04:42:53;3.83;;;3.53;;
7875;SDS011;69649;53.712;9.680;2023-07-31T04:45:19;4.43;;;3.90;;
7875;SDS011;69649;53.712;9.680;2023-07-31T04:47:44;4.13;;;3.30;;
7875;SDS011;69649;53.712;9.680;2023-07-31T04:50:10;4.67;;;3.63;;
7875;SDS011;69649;53.712;9.680;2023-07-31T04:52:36;4.80;;;3.83;;
7875;SDS011;69649;53.712;9.680;2023-07-31T04:55:02;4.10;;;3.73;;
7875;SDS011;69649;53.712;9.680;2023-07-31T04:57:28;4.13;;;3.73;;
7875;SDS011;69649;53.712;9.680;2023-07-31T04:59:54;5.00;;;3.47;;
7875;SDS011;69649;53.712;9.680;2023-07-31T05:02:19;3.50;;;3.20;;
7875;SDS011;69649;53.712;9.680;2023-07-31T05:04:48;3.50;;;3.20;;
7875;SDS011;69649;53.712;9.680;2023-07-31T05:07:14;4.23;;;3.37;;
7875;SDS011;69649;53.712;9.680;2023-07-31T05:09:39;3.00;;;2.70;;
7875;SDS011;69649;53.712;9.680;2023-07-31T05:12:05;3.70;;;3.10;;
7875;SDS011;69649;53.712;9.680;2023-07-31T05:14:31;3.37;;;3.07;;
7875;SDS011;69649;53.712;9.680;2023-07-31T05:16:57;3.50;;;3.20;;
7875;SDS011;69649;53.712;9.680;2023-07-31T05:19:23;3.40;;;3.10;;
7875;SDS011;69649;53.712;9.680;2023-07-31T05:21:49;3.60;;;3.30;;
7875;SDS011;69649;53.712;9.680;2023-07-31T05:24:14;3.73;;;3.20;;
7875;SDS011;69649;53.712;9.680;2023-07-31T05:26:40;3.87;;;3.43;;
7875;SDS011;69649;53.712;9.680;2023-07-31T05:29:06;5.97;;;3.50;;
7875;SDS011;69649;53.712;9.680;2023-07-31T05:31:32;3.50;;;3.07;;
7875;SDS011;69649;53.712;9.680;2023-07-31T05:33:58;4.40;;;4.10;;
7875;SDS011;69649;53.712;9.680;2023-07-31T05:36:23;4.90;;;4.30;;
7875;SDS011;69649;53.712;9.680;2023-07-31T05:38:49;4.33;;;3.93;;
7875;SDS011;69649;53.712;9.680;2023-07-31T05:41:15;3.80;;;3.50;;
7875;SDS011;69649;53.712;9.680;2023-07-31T05:43:41;5.17;;;3.80;;
7875;SDS011;69649;53.712;9.680;2023-07-31T05:46:08;4.53;;;4.10;;
7875;SDS011;69649;53.712;9.680;2023-07-31T05:48:34;5.53;;;3.77;;
7875;SDS011;69649;53.712;9.680;2023-07-31T05:51:00;5.73;;;3.90;;
7875;SDS011;69649;53.712;9.680;2023-07-31T05:53:26;4.27;;;3.87;;
7875;SDS011;69649;53.712;9.680;2023-07-31T05:55:52;4.60;;;4.13;;
7875;SDS011;69649;53.712;9.680;2023-07-31T05:58:17;7.27;;;3.80;;
7875;SDS011;69649;53.712;9.680;2023-07-31T06:00:43;4.03;;;3.70;;
7875;SDS011;69649;53.712;9.680;2023-07-31T06:03:09;4.67;;;4.00;;
7875;SDS011;69649;53.712;9.680;2023-07-31T06:05:35;4.50;;;3.73;;
7875;SDS011;69649;53.712;9.680;2023-07-31T06:08:01;4.37;;;3.97;;
7875;SDS011;69649;53.712;9.680;2023-07-31T06:10:26;4.10;;;3.70;;
7875;SDS011;69649;53.712;9.680;2023-07-31T06:12:54;4.40;;;3.57;;
7875;SDS011;69649;53.712;9.680;2023-07-31T06:15:19;4.20;;;3.80;;
7875;SDS011;69649;53.712;9.680;2023-07-31T06:17:45;4.07;;;3.67;;
7875;SDS011;69649;53.712;9.680;2023-07-31T06:20:11;4.47;;;3.83;;
7875;SDS011;69649;53.712;9.680;2023-07-31T06:22:37;3.70;;;3.30;;
7875;SDS011;69649;53.712;9.680;2023-07-31T06:25:03;5.07;;;3.57;;
7875;SDS011;69649;53.712;9.680;2023-07-31T06:27:29;3.40;;;3.10;;
7875;SDS011;69649;53.712;9.680;2023-07-31T06:29:55;4.23;;;3.47;;
7875;SDS011;69649;53.712;9.680;2023-07-31T06:32:21;3.80;;;3.50;;
7875;SDS011;69649;53.712;9.680;2023-07-31T06:34:47;3.40;;;3.10;;
7875;SDS011;69649;53.712;9.680;2023-07-31T06:37:12;3.43;;;3.13;;
7875;SDS011;69649;53.712;9.680;2023-07-31T06:39:38;3.57;;;3.00;;
7875;SDS011;69649;53.712;9.680;2023-07-31T06:42:04;3.93;;;3.03;;
7875;SDS011;69649;53.712;9.680;2023-07-31T06:44:30;3.37;;;3.07;;
7875;SDS011;69649;53.712;9.680;2023-07-31T06:46:56;3.27;;;2.97;;
7875;SDS011;69649;53.712;9.680;2023-07-31T06:49:21;3.50;;;3.20;;
7875;SDS011;69649;53.712;9.680;2023-07-31T06:51:47;3.10;;;2.80;;
7875;SDS011;69649;53.712;9.680;2023-07-31T06:54:13;3.10;;;2.80;;
7875;SDS011;69649;53.712;9.680;2023-07-31T06:56:39;3.77;;;3.47;;
7875;SDS011;69649;53.712;9.680;2023-07-31T06:59:04;3.40;;;3.10;;
7875;SDS011;69649;53.712;9.680;2023-07-31T07:01:30;4.13;;;3.47;;
7875;SDS011;69649;53.712;9.680;2023-07-31T07:03:56;3.27;;;2.97;;
7875;SDS011;69649;53.712;9.680;2023-07-31T07:06:22;3.20;;;2.90;;
7875;SDS011;69649;53.712;9.680;2023-07-31T07:08:48;4.17;;;3.03;;
7875;SDS011;69649;53.712;9.680;2023-07-31T07:11:14;4.07;;;3.67;;
7875;SDS011;69649;53.712;9.680;2023-07-31T07:13:40;4.80;;;3.60;;
7875;SDS011;69649;53.712;9.680;2023-07-31T07:16:06;3.70;;;3.40;;
7875;SDS011;69649;53.712;9.680;2023-07-31T07:18:32;3.80;;;3.50;;
7875;SDS011;69649;53.712;9.680;2023-07-31T07:20:57;3.97;;;3.67;;
7875;SDS011;69649;53.712;9.680;2023-07-31T07:23:23;3.97;;;3.67;;
7875;SDS011;69649;53.712;9.680;2023-07-31T07:25:49;3.70;;;3.40;;
7875;SDS011;69649;53.712;9.680;2023-07-31T07:28:16;5.70;;;3.43;;
7875;SDS011;69649;53.712;9.680;2023-07-31T07:30:42;3.73;;;3.40;;
7875;SDS011;69649;53.712;9.680;2023-07-31T07:33:08;5.67;;;3.43;;
7875;SDS011;69649;53.712;9.680;2023-07-31T07:35:34;3.50;;;3.20;;
7875;SDS011;69649;53.712;9.680;2023-07-31T07:38:01;4.07;;;3.67;;
7875;SDS011;69649;53.712;9.680;2023-07-31T07:40:27;4.70;;;3.30;;
7875;SDS011;69649;53.712;9.680;2023-07-31T07:42:53;3.80;;;3.50;;
7875;SDS011;69649;53.712;9.680;2023-07-31T07:45:19;3.73;;;3.43;;
7875;SDS011;69649;53.712;9.680;2023-07-31T07:47:45;3.70;;;3.40;;
7875;SDS011;69649;53.712;9.680;2023-07-31T07:50:10;3.73;;;3.43;;
7875;SDS011;69649;53.712;9.680;2023-07-31T07:52:36;3.47;;;3.17;;
7875;SDS011;69649;53.712;9.680;2023-07-31T07:55:02;3.77;;;3.47;;
7875;SDS011;69649;53.712;9.680;2023-07-31T07:57:29;3.43;;;3.13;;
7875;SDS011;69649;53.712;9.680;2023-07-31T07:59:54;3.87;;;3.57;;
7875;SDS011;69649;53.712;9.680;2023-07-31T08:02:21;4.03;;;3.73;;
7875;SDS011;69649;53.712;9.680;2023-07-31T08:04:47;4.13;;;3.83;;
7875;SDS011;69649;53.712;9.680;2023-07-31T08:07:13;5.47;;;4.20;;
7875;SDS011;69649;53.712;9.680;2023-07-31T08:09:38;3.93;;;3.50;;
7875;SDS011;69649;53.712;9.680;2023-07-31T08:12:05;4.13;;;3.73;;
7875;SDS011;69649;53.712;9.680;2023-07-31T08:14:31;4.03;;;3.53;;
7875;SDS011;69649;53.712;9.680;2023-07-31T08:16:57;4.80;;;3.83;;
7875;SDS011;69649;53.712;9.680;2023-07-31T08:19:23;4.30;;;3.50;;
7875;SDS011;69649;53.712;9.680;2023-07-31T08:21:49;4.27;;;3.83;;
7875;SDS011;69649;53.712;9.680;2023-07-31T08:24:15;4.50;;;3.63;;
7875;SDS011;69649;53.712;9.680;2023-07-31T08:26:40;3.83;;;3.50;;
7875;SDS011;69649;53.712;9.680;2023-07-31T08:29:06;3.60;;;3.30;;
7875;SDS011;69649;53.712;9.680;2023-07-31T08:31:32;3.90;;;3.50;;
7875;SDS011;69649;53.712;9.680;2023-07-31T08:33:58;4.70;;;4.17;;
7875;SDS011;69649;53.712;9.680;2023-07-31T08:36:23;3.87;;;3.57;;
7875;SDS011;69649;53.712;9.680;2023-07-31T08:38:49;3.80;;;3.50;;
7875;SDS011;69649;53.712;9.680;2023-07-31T08:41:15;3.07;;;2.77;;
7875;SDS011;69649;53.712;9.680;2023-07-31T08:43:48;3.50;;;3.20;;
7875;SDS011;69649;53.712;9.680;2023-07-31T08:46:15;3.80;;;3.40;;
7875;SDS011;69649;53.712;9.680;2023-07-31T08:48:42;3.23;;;2.93;;
7875;SDS011;69649;53.712;9.680;2023-07-31T08:51:08;3.73;;;3.27;;
7875;SDS011;69649;53.712;9.680;2023-07-31T08:53:34;3.03;;;2.83;;
7875;SDS011;69649;53.712;9.680;2023-07-31T08:56:00;2.87;;;2.67;;
7875;SDS011;69649;53.712;9.680;2023-07-31T08:58:27;2.97;;;2.67;;
7875;SDS011;69649;53.712;9.680;2023-07-31T09:00:56;2.70;;;2.50;;
7875;SDS011;69649;53.712;9.680;2023-07-31T09:03:23;2.13;;;2.03;;
7875;SDS011;69649;53.712;9.680;2023-07-31T09:05:51;2.77;;;2.53;;
7875;SDS011;69649;53.712;9.680;2023-07-31T09:08:21;2.70;;;2.50;;
7875;SDS011;69649;53.712;9.680;2023-07-31T09:10:45;2.67;;;2.47;;
7875;SDS011;69649;53.712;9.680;2023-07-31T09:13:12;2.30;;;2.10;;
7875;SDS011;69649;53.712;9.680;2023-07-31T09:15:39;2.33;;;2.13;;
7875;SDS011;69649;53.712;9.680;2023-07-31T09:18:06;2.27;;;2.10;;
7875;SDS011;69649;53.712;9.680;2023-07-31T09:20:33;2.07;;;1.87;;
7875;SDS011;69649;53.712;9.680;2023-07-31T09:23:09;2.50;;;2.30;;
7875;SDS011;69649;53.712;9.680;2023-07-31T09:25:36;2.30;;;2.10;;
7875;SDS011;69649;53.712;9.680;2023-07-31T09:28:04;2.63;;;1.80;;
7875;SDS011;69649;53.712;9.680;2023-07-31T09:30:48;2.43;;;1.80;;
7875;SDS011;69649;53.712;9.680;2023-07-31T09:33:15;2.60;;;2.00;;
7875;SDS011;69649;53.712;9.680;2023-07-31T09:35:42;2.30;;;2.10;;
7875;SDS011;69649;53.712;9.680;2023-07-31T09:38:09;2.20;;;2.00;;
7875;SDS011;69649;53.712;9.680;2023-07-31T09:40:44;1.90;;;1.80;;
7875;SDS011;69649;53.712;9.680;2023-07-31T09:43:13;1.80;;;1.70;;
7875;SDS011;69649;53.712;9.680;2023-07-31T09:45:41;2.20;;;2.03;;
7875;SDS011;69649;53.712;9.680;2023-07-31T09:48:08;2.60;;;1.90;;
7875;SDS011;69649;53.712;9.680;2023-07-31T09:50:37;3.13;;;2.00;;
7875;SDS011;69649;53.712;9.680;2023-07-31T09:53:05;2.10;;;1.90;;
7875;SDS011;69649;53.712;9.680;2023-07-31T09:55:32;2.20;;;2.00;;
7875;SDS011;69649;53.712;9.680;2023-07-31T09:57:58;2.13;;;1.93;;
7875;SDS011;69649;53.712;9.680;2023-07-31T10:00:24;3.70;;;1.90;;
7875;SDS011;69649;53.712;9.680;2023-07-31T10:02:52;2.20;;;2.00;;
7875;SDS011;69649;53.712;9.680;2023-07-31T10:05:19;2.20;;;2.00;;
7875;SDS011;69649;53.712;9.680;2023-07-31T10:07:51;2.30;;;1.80;;
7875;SDS011;69649;53.712;9.680;2023-07-31T10:10:19;2.13;;;2.00;;
7875;SDS011;69649;53.712;9.680;2023-07-31T10:12:46;2.00;;;1.80;;
7875;SDS011;69649;53.712;9.680;2023-07-31T10:15:14;2.67;;;2.13;;
7875;SDS011;69649;53.712;9.680;2023-07-31T10:17:41;2.13;;;1.93;;
7875;SDS011;69649;53.712;9.680;2023-07-31T10:20:07;1.83;;;1.70;;
7875;SDS011;69649;53.712;9.680;2023-07-31T10:22:34;2.47;;;1.80;;
7875;SDS011;69649;53.712;9.680;2023-07-31T10:25:00;1.70;;;1.47;;
7875;SDS011;69649;53.712;9.680;2023-07-31T10:27:26;1.70;;;1.60;;
7875;SDS011;69649;53.712;9.680;2023-07-31T10:29:54;2.43;;;1.70;;
7875;SDS011;69649;53.712;9.680;2023-07-31T10:32:20;1.50;;;1.40;;
7875;SDS011;69649;53.712;9.680;2023-07-31T10:34:48;1.70;;;1.60;;
7875;SDS011;69649;53.712;9.680;2023-07-31T10:37:28;1.80;;;1.70;;
7875;SDS011;69649;53.712;9.680;2023-07-31T10:42:29;1.50;;;1.40;;
7875;SDS011;69649;53.712;9.680;2023-07-31T10:44:59;2.20;;;1.60;;
7875;SDS011;69649;53.712;9.680;2023-07-31T10:47:27;1.47;;;1.30;;
7875;SDS011;69649;53.712;9.680;2023-07-31T10:50:10;1.53;;;1.20;;
7875;SDS011;69649;53.712;9.680;2023-07-31T10:52:43;1.73;;;1.63;;
7875;SDS011;69649;53.712;9.680;2023-07-31T10:55:23;1.57;;;1.47;;
7875;SDS011;69649;53.712;9.680;2023-07-31T10:57:55;1.60;;;1.50;;
7875;SDS011;69649;53.712;9.680;2023-07-31T11:00:28;1.47;;;1.30;;
7875;SDS011;69649;53.712;9.680;2023-07-31T11:16:01;2.13;;;1.53;;
7875;SDS011;69649;53.712;9.680;2023-07-31T11:18:27;2.63;;;1.40;;
7875;SDS011;69649;53.712;9.680;2023-07-31T11:20:53;1.67;;;1.37;;
7875;SDS011;69649;53.712;9.680;2023-07-31T11:23:19;3.10;;;1.77;;
7875;SDS011;69649;53.712;9.680;2023-07-31T11:25:45;1.47;;;1.37;;
7875;SDS011;69649;53.712;9.680;2023-07-31T11:28:12;2.67;;;1.30;;
7875;SDS011;69649;53.712;9.680;2023-07-31T11:30:39;1.77;;;1.33;;
7875;SDS011;69649;53.712;9.680;2023-07-31T11:33:09;1.37;;;1.13;;
7875;SDS011;69649;53.712;9.680;2023-07-31T11:35:41;1.30;;;1.20;;
7875;SDS011;69649;53.712;9.680;2023-07-31T11:38:21;1.33;;;1.23;;
7875;SDS011;69649;53.712;9.680;2023-07-31T11:40:49;2.13;;;1.33;;
7875;SDS011;69649;53.712;9.680;2023-07-31T11:43:15;1.70;;;1.20;;
7875;SDS011;69649;53.712;9.680;2023-07-31T11:45:45;1.67;;;1.57;;
7875;SDS011;69649;53.712;9.680;2023-07-31T11:48:19;1.50;;;1.40;;
7875;SDS011;69649;53.712;9.680;2023-07-31T11:50:47;1.40;;;1.30;;
7875;SDS011;69649;53.712;9.680;2023-07-31T11:53:15;2.13;;;1.50;;
7875;SDS011;69649;53.712;9.680;2023-07-31T11:55:42;1.40;;;1.30;;
7875;SDS011;69649;53.712;9.680;2023-07-31T11:58:09;1.40;;;1.30;;
7875;SDS011;69649;53.712;9.680;2023-07-31T12:00:35;1.30;;;1.20;;
7875;SDS011;69649;53.712;9.680;2023-07-31T12:03:01;1.50;;;1.40;;
7875;SDS011;69649;53.712;9.680;2023-07-31T12:05:27;1.53;;;1.33;;
7875;SDS011;69649;53.712;9.680;2023-07-31T12:07:53;1.80;;;1.27;;
7875;SDS011;69649;53.712;9.680;2023-07-31T12:10:24;2.47;;;1.20;;
7875;SDS011;69649;53.712;9.680;2023-07-31T12:13:04;1.40;;;1.30;;
7875;SDS011;69649;53.712;9.680;2023-07-31T12:15:41;1.40;;;1.30;;
7875;SDS011;69649;53.712;9.680;2023-07-31T12:18:10;1.50;;;1.40;;
7875;SDS011;69649;53.712;9.680;2023-07-31T12:20:43;1.43;;;1.30;;
7875;SDS011;69649;53.712;9.680;2023-07-31T12:23:17;2.17;;;1.50;;
7875;SDS011;69649;53.712;9.680;2023-07-31T12:25:46;1.40;;;1.30;;
7875;SDS011;69649;53.712;9.680;2023-07-31T12:28:12;0.93;;;0.93;;
7875;SDS011;69649;53.712;9.680;2023-07-31T12:30:39;1.40;;;1.30;;
7875;SDS011;69649;53.712;9.680;2023-07-31T12:33:06;1.40;;;1.30;;
7875;SDS011;69649;53.712;9.680;2023-07-31T12:35:35;1.90;;;1.20;;
7875;SDS011;69649;53.712;9.680;2023-07-31T12:38:03;1.30;;;1.20;;
7875;SDS011;69649;53.712;9.680;2023-07-31T12:40:29;2.20;;;1.23;;
7875;SDS011;69649;53.712;9.680;2023-07-31T12:42:55;1.60;;;1.40;;
7875;SDS011;69649;53.712;9.680;2023-07-31T12:45:21;1.33;;;1.23;;
7875;SDS011;69649;53.712;9.680;2023-07-31T12:47:46;1.73;;;1.40;;
7875;SDS011;69649;53.712;9.680;2023-07-31T12:50:12;1.70;;;1.17;;
7875;SDS011;69649;53.712;9.680;2023-07-31T12:52:38;1.67;;;1.20;;
7875;SDS011;69649;53.712;9.680;2023-07-31T12:55:04;1.03;;;1.03;;
7875;SDS011;69649;53.712;9.680;2023-07-31T12:57:30;2.40;;;1.40;;
7875;SDS011;69649;53.712;9.680;2023-07-31T12:59:56;1.60;;;1.07;;
7875;SDS011;69649;53.712;9.680;2023-07-31T13:02:21;1.43;;;1.33;;
7875;SDS011;69649;53.712;9.680;2023-07-31T13:04:48;2.03;;;1.43;;
7875;SDS011;69649;53.712;9.680;2023-07-31T13:07:15;1.20;;;1.10;;
7875;SDS011;69649;53.712;9.680;2023-07-31T13:09:41;4.90;;;1.67;;
7875;SDS011;69649;53.712;9.680;2023-07-31T13:12:07;2.00;;;1.50;;
7875;SDS011;69649;53.712;9.680;2023-07-31T13:14:33;1.47;;;1.33;;
7875;SDS011;69649;53.712;9.680;2023-07-31T13:16:59;2.40;;;1.63;;
7875;SDS011;69649;53.712;9.680;2023-07-31T13:19:25;1.47;;;1.37;;
7875;SDS011;69649;53.712;9.680;2023-07-31T13:21:51;1.30;;;1.20;;
7875;SDS011;69649;53.712;9.680;2023-07-31T13:24:16;0.83;;;0.83;;
7875;SDS011;69649;53.712;9.680;2023-07-31T13:26:42;1.50;;;1.30;;
7875;SDS011;69649;53.712;9.680;2023-07-31T13:29:08;1.67;;;1.40;;
7875;SDS011;69649;53.712;9.680;2023-07-31T13:31:34;1.33;;;1.23;;
7875;SDS011;69649;53.712;9.680;2023-07-31T13:33:59;2.07;;;1.50;;
7875;SDS011;69649;53.712;9.680;2023-07-31T13:36:25;1.57;;;1.20;;
7875;SDS011;69649;53.712;9.680;2023-07-31T13:38:51;1.30;;;1.17;;
7875;SDS011;69649;53.712;9.680;2023-07-31T13:41:16;2.40;;;1.30;;
7875;SDS011;69649;53.712;9.680;2023-07-31T13:43:42;1.40;;;1.20;;
7875;SDS011;69649;53.712;9.680;2023-07-31T13:46:08;1.50;;;1.40;;
7875;SDS011;69649;53.712;9.680;2023-07-31T13:48:36;2.13;;;1.50;;
7875;SDS011;69649;53.712;9.680;2023-07-31T13:51:02;1.60;;;1.50;;
7875;SDS011;69649;53.712;9.680;2023-07-31T13:53:27;1.20;;;1.10;;
7875;SDS011;69649;53.712;9.680;2023-07-31T13:55:53;1.53;;;1.20;;
7875;SDS011;69649;53.712;9.680;2023-07-31T13:58:20;1.73;;;1.17;;
7875;SDS011;69649;53.712;9.680;2023-07-31T14:00:46;1.70;;;1.60;;
7875;SDS011;69649;53.712;9.680;2023-07-31T14:03:12;1.20;;;1.10;;
7875;SDS011;69649;53.712;9.680;2023-07-31T14:05:37;2.50;;;1.40;;
7875;SDS011;69649;53.712;9.680;2023-07-31T14:08:03;1.50;;;1.40;;
7875;SDS011;69649;53.712;9.680;2023-07-31T14:10:29;1.47;;;1.30;;
7875;SDS011;69649;53.712;9.680;2023-07-31T14:12:55;2.70;;;1.43;;
7875;SDS011;69649;53.712;9.680;2023-07-31T14:15:20;1.57;;;1.30;;
7875;SDS011;69649;53.712;9.680;2023-07-31T14:17:46;1.40;;;1.20;;
7875;SDS011;69649;53.712;9.680;2023-07-31T14:20:12;2.10;;;1.47;;
7875;SDS011;69649;53.712;9.680;2023-07-31T14:22:38;1.73;;;1.40;;
7875;SDS011;69649;53.712;9.680;2023-07-31T14:25:04;1.50;;;1.40;;
7875;SDS011;69649;53.712;9.680;2023-07-31T14:27:30;1.53;;;1.30;;
7875;SDS011;69649;53.712;9.680;2023-07-31T14:29:56;3.13;;;1.07;;
7875;SDS011;69649;53.712;9.680;2023-07-31T14:32:22;1.47;;;1.37;;
7875;SDS011;69649;53.712;9.680;2023-07-31T14:34:50;1.20;;;1.10;;
7875;SDS011;69649;53.712;9.680;2023-07-31T14:37:16;1.53;;;1.13;;
7875;SDS011;69649;53.712;9.680;2023-07-31T14:39:42;1.40;;;1.30;;
7875;SDS011;69649;53.712;9.680;2023-07-31T14:42:09;2.47;;;1.00;;
7875;SDS011;69649;53.712;9.680;2023-07-31T14:44:35;2.10;;;1.23;;
7875;SDS011;69649;53.712;9.680;2023-07-31T14:47:00;1.40;;;1.27;;
7875;SDS011;69649;53.712;9.680;2023-07-31T14:49:26;1.30;;;1.20;;
7875;SDS011;69649;53.712;9.680;2023-07-31T14:51:55;1.30;;;1.20;;
7875;SDS011;69649;53.712;9.680;2023-07-31T14:54:21;1.30;;;1.20;;
7875;SDS011;69649;53.712;9.680;2023-07-31T14:56:46;1.30;;;1.10;;
7875;SDS011;69649;53.712;9.680;2023-07-31T14:59:12;1.33;;;1.10;;
7875;SDS011;69649;53.712;9.680;2023-07-31T15:01:38;1.50;;;1.40;;
7875;SDS011;69649;53.712;9.680;2023-07-31T15:04:04;2.60;;;1.80;;
7875;SDS011;69649;53.712;9.680;2023-07-31T15:06:30;1.93;;;1.40;;
7875;SDS011;69649;53.712;9.680;2023-07-31T15:08:55;1.60;;;1.50;;
7875;SDS011;69649;53.712;9.680;2023-07-31T15:11:21;1.10;;;1.00;;
7875;SDS011;69649;53.712;9.680;2023-07-31T15:13:47;1.70;;;1.20;;
7875;SDS011;69649;53.712;9.680;2023-07-31T15:16:13;2.30;;;1.40;;
7875;SDS011;69649;53.712;9.680;2023-07-31T15:18:38;1.27;;;1.17;;